sensor_id;sensor_type;location;lat;lon;timestamp;P1;durP1;ratioP1;P2;durP2;ratioP2
80961;SDS011;70424;55.154;14.722;2023-07-28T00:01:56;5.63;;;4.00;;
80961;SDS011;70424;55.154;14.722;2023-07-28T00:04:21;6.72;;;4.35;;
80961;SDS011;70424;55.154;14.722;2023-07-28T00:06:46;7.53;;;3.90;;
80961;SDS011;70424;55.154;14.722;2023-07-28T00:09:12;6.20;;;4.28;;
80961;SDS011;70424;55.154;14.722;2023-07-28T00:11:37;5.53;;;3.60;;
80961;SDS011;70424;55.154;14.722;2023-07-28T00:14:02;5.40;;;3.92;;
80961;SDS011;70424;55.154;14.722;2023-07-28T00:16:28;6.03;;;4.20;;
80961;SDS011;70424;55.154;14.722;2023-07-28T00:18:53;6.40;;;3.58;;
80961;SDS011;70424;55.154;14.722;2023-07-28T00:21:18;5.32;;;3.45;;
80961;SDS011;70424;55.154;14.722;2023-07-28T00:23:43;6.57;;;3.63;;
80961;SDS011;70424;55.154;14.722;2023-07-28T00:26:09;6.57;;;3.35;;
80961;SDS011;70424;55.154;14.722;2023-07-28T00:28:34;5.72;;;3.47;;
80961;SDS011;70424;55.154;14.722;2023-07-28T00:30:59;5.20;;;3.28;;
80961;SDS011;70424;55.154;14.722;2023-07-28T00:33:25;7.47;;;3.38;;
80961;SDS011;70424;55.154;14.722;2023-07-28T00:35:50;4.47;;;2.97;;
80961;SDS011;70424;55.154;14.722;2023-07-28T00:38:15;3.60;;;2.90;;
80961;SDS011;70424;55.154;14.722;2023-07-28T00:40:41;6.93;;;3.10;;
80961;SDS011;70424;55.154;14.722;2023-07-28T00:43:06;6.57;;;3.65;;
80961;SDS011;70424;55.154;14.722;2023-07-28T00:45:32;5.60;;;2.80;;
80961;SDS011;70424;55.154;14.722;2023-07-28T00:47:58;4.80;;;3.05;;
80961;SDS011;70424;55.154;14.722;2023-07-28T00:50:24;4.03;;;2.75;;
80961;SDS011;70424;55.154;14.722;2023-07-28T00:52:50;6.25;;;3.22;;
80961;SDS011;70424;55.154;14.722;2023-07-28T00:55:15;4.72;;;3.20;;
80961;SDS011;70424;55.154;14.722;2023-07-28T00:57:41;4.72;;;3.00;;
80961;SDS011;70424;55.154;14.722;2023-07-28T01:00:07;3.70;;;2.90;;
80961;SDS011;70424;55.154;14.722;2023-07-28T01:02:32;6.13;;;3.22;;
80961;SDS011;70424;55.154;14.722;2023-07-28T01:04:58;3.78;;;2.88;;
80961;SDS011;70424;55.154;14.722;2023-07-28T01:10:05;5.03;;;2.97;;
80961;SDS011;70424;55.154;14.722;2023-07-28T01:12:33;5.15;;;2.90;;
80961;SDS011;70424;55.154;14.722;2023-07-28T01:14:59;4.68;;;2.90;;
80961;SDS011;70424;55.154;14.722;2023-07-28T01:17:24;5.40;;;3.30;;
80961;SDS011;70424;55.154;14.722;2023-07-28T01:19:50;3.97;;;3.17;;
80961;SDS011;70424;55.154;14.722;2023-07-28T01:22:22;6.18;;;3.08;;
80961;SDS011;70424;55.154;14.722;2023-07-28T01:28:27;4.28;;;2.60;;
80961;SDS011;70424;55.154;14.722;2023-07-28T01:30:54;3.95;;;2.85;;
80961;SDS011;70424;55.154;14.722;2023-07-28T01:33:19;4.00;;;2.75;;
80961;SDS011;70424;55.154;14.722;2023-07-28T01:35:45;4.82;;;3.30;;
80961;SDS011;70424;55.154;14.722;2023-07-28T01:38:10;4.18;;;2.65;;
80961;SDS011;70424;55.154;14.722;2023-07-28T01:40:37;3.55;;;2.70;;
80961;SDS011;70424;55.154;14.722;2023-07-28T01:43:02;6.85;;;3.20;;
80961;SDS011;70424;55.154;14.722;2023-07-28T01:45:27;4.55;;;2.92;;
80961;SDS011;70424;55.154;14.722;2023-07-28T01:47:53;5.30;;;3.20;;
80961;SDS011;70424;55.154;14.722;2023-07-28T01:50:18;4.30;;;2.78;;
80961;SDS011;70424;55.154;14.722;2023-07-28T01:52:43;5.25;;;3.25;;
80961;SDS011;70424;55.154;14.722;2023-07-28T01:55:09;4.32;;;3.00;;
80961;SDS011;70424;55.154;14.722;2023-07-28T01:57:34;4.78;;;3.15;;
80961;SDS011;70424;55.154;14.722;2023-07-28T02:00:00;4.55;;;3.17;;
80961;SDS011;70424;55.154;14.722;2023-07-28T02:02:25;5.00;;;3.25;;
80961;SDS011;70424;55.154;14.722;2023-07-28T02:04:51;5.10;;;3.20;;
80961;SDS011;70424;55.154;14.722;2023-07-28T02:07:16;3.72;;;2.92;;
80961;SDS011;70424;55.154;14.722;2023-07-28T02:09:41;4.35;;;3.22;;
80961;SDS011;70424;55.154;14.722;2023-07-28T02:12:07;7.07;;;3.17;;
80961;SDS011;70424;55.154;14.722;2023-07-28T02:14:32;6.13;;;3.33;;
80961;SDS011;70424;55.154;14.722;2023-07-28T02:16:57;5.05;;;3.30;;
80961;SDS011;70424;55.154;14.722;2023-07-28T02:19:24;5.97;;;3.45;;
80961;SDS011;70424;55.154;14.722;2023-07-28T02:21:49;4.55;;;3.30;;
80961;SDS011;70424;55.154;14.722;2023-07-28T02:24:14;5.68;;;3.78;;
80961;SDS011;70424;55.154;14.722;2023-07-28T02:26:40;5.25;;;3.20;;
80961;SDS011;70424;55.154;14.722;2023-07-28T02:29:05;6.35;;;3.72;;
80961;SDS011;70424;55.154;14.722;2023-07-28T02:31:30;6.53;;;3.60;;
80961;SDS011;70424;55.154;14.722;2023-07-28T02:33:56;5.97;;;4.47;;
80961;SDS011;70424;55.154;14.722;2023-07-28T02:36:21;6.18;;;3.80;;
80961;SDS011;70424;55.154;14.722;2023-07-28T02:38:46;5.85;;;3.78;;
80961;SDS011;70424;55.154;14.722;2023-07-28T02:41:12;7.40;;;3.90;;
80961;SDS011;70424;55.154;14.722;2023-07-28T02:43:37;6.53;;;4.22;;
80961;SDS011;70424;55.154;14.722;2023-07-28T02:46:02;6.60;;;4.15;;
80961;SDS011;70424;55.154;14.722;2023-07-28T02:48:28;5.50;;;3.72;;
80961;SDS011;70424;55.154;14.722;2023-07-28T02:50:53;6.85;;;3.70;;
80961;SDS011;70424;55.154;14.722;2023-07-28T02:53:19;6.93;;;4.07;;
80961;SDS011;70424;55.154;14.722;2023-07-28T02:55:45;6.10;;;4.07;;
80961;SDS011;70424;55.154;14.722;2023-07-28T02:58:11;5.40;;;3.90;;
80961;SDS011;70424;55.154;14.722;2023-07-28T03:00:37;4.90;;;3.65;;
80961;SDS011;70424;55.154;14.722;2023-07-28T03:03:06;6.60;;;4.15;;
80961;SDS011;70424;55.154;14.722;2023-07-28T03:05:32;6.38;;;3.60;;
80961;SDS011;70424;55.154;14.722;2023-07-28T03:07:58;5.65;;;3.92;;
80961;SDS011;70424;55.154;14.722;2023-07-28T03:10:23;5.00;;;3.78;;
80961;SDS011;70424;55.154;14.722;2023-07-28T03:12:48;5.85;;;3.63;;
80961;SDS011;70424;55.154;14.722;2023-07-28T03:15:14;6.80;;;4.10;;
80961;SDS011;70424;55.154;14.722;2023-07-28T03:17:39;6.30;;;4.15;;
80961;SDS011;70424;55.154;14.722;2023-07-28T03:20:04;6.07;;;3.88;;
80961;SDS011;70424;55.154;14.722;2023-07-28T03:22:31;6.78;;;4.40;;
80961;SDS011;70424;55.154;14.722;2023-07-28T03:24:56;5.88;;;4.00;;
80961;SDS011;70424;55.154;14.722;2023-07-28T03:27:21;6.30;;;4.07;;
80961;SDS011;70424;55.154;14.722;2023-07-28T03:29:47;5.88;;;3.60;;
80961;SDS011;70424;55.154;14.722;2023-07-28T03:32:12;6.13;;;3.90;;
80961;SDS011;70424;55.154;14.722;2023-07-28T03:34:37;6.82;;;4.18;;
80961;SDS011;70424;55.154;14.722;2023-07-28T03:37:03;7.32;;;3.90;;
80961;SDS011;70424;55.154;14.722;2023-07-28T03:39:28;6.70;;;4.28;;
80961;SDS011;70424;55.154;14.722;2023-07-28T03:41:55;7.13;;;4.13;;
80961;SDS011;70424;55.154;14.722;2023-07-28T03:44:21;6.57;;;3.83;;
80961;SDS011;70424;55.154;14.722;2023-07-28T03:46:46;5.10;;;3.75;;
80961;SDS011;70424;55.154;14.722;2023-07-28T03:49:12;6.00;;;3.90;;
80961;SDS011;70424;55.154;14.722;2023-07-28T03:51:37;6.03;;;4.22;;
80961;SDS011;70424;55.154;14.722;2023-07-28T03:54:03;6.68;;;4.20;;
80961;SDS011;70424;55.154;14.722;2023-07-28T03:56:28;5.60;;;4.03;;
80961;SDS011;70424;55.154;14.722;2023-07-28T03:58:54;5.28;;;4.00;;
80961;SDS011;70424;55.154;14.722;2023-07-28T04:01:19;7.97;;;4.13;;
80961;SDS011;70424;55.154;14.722;2023-07-28T04:03:46;5.88;;;3.88;;
80961;SDS011;70424;55.154;14.722;2023-07-28T04:06:12;7.30;;;4.32;;
80961;SDS011;70424;55.154;14.722;2023-07-28T04:08:38;6.38;;;4.43;;
80961;SDS011;70424;55.154;14.722;2023-07-28T04:11:04;5.70;;;4.05;;
80961;SDS011;70424;55.154;14.722;2023-07-28T04:13:29;6.03;;;4.50;;
80961;SDS011;70424;55.154;14.722;2023-07-28T04:15:55;6.72;;;4.88;;
80961;SDS011;70424;55.154;14.722;2023-07-28T04:18:20;7.57;;;5.30;;
80961;SDS011;70424;55.154;14.722;2023-07-28T04:20:45;5.55;;;4.45;;
80961;SDS011;70424;55.154;14.722;2023-07-28T04:23:11;7.75;;;5.10;;
80961;SDS011;70424;55.154;14.722;2023-07-28T04:25:37;7.32;;;5.35;;
80961;SDS011;70424;55.154;14.722;2023-07-28T04:28:02;7.50;;;4.70;;
80961;SDS011;70424;55.154;14.722;2023-07-28T04:30:27;5.70;;;4.70;;
80961;SDS011;70424;55.154;14.722;2023-07-28T04:32:53;6.95;;;5.47;;
80961;SDS011;70424;55.154;14.722;2023-07-28T04:35:18;7.70;;;4.80;;
80961;SDS011;70424;55.154;14.722;2023-07-28T04:37:44;6.20;;;5.38;;
80961;SDS011;70424;55.154;14.722;2023-07-28T04:40:09;7.35;;;5.15;;
80961;SDS011;70424;55.154;14.722;2023-07-28T04:42:35;6.38;;;5.18;;
80961;SDS011;70424;55.154;14.722;2023-07-28T04:45:01;7.20;;;5.35;;
80961;SDS011;70424;55.154;14.722;2023-07-28T04:47:27;8.43;;;4.95;;
80961;SDS011;70424;55.154;14.722;2023-07-28T04:49:52;8.05;;;5.25;;
80961;SDS011;70424;55.154;14.722;2023-07-28T04:52:17;9.02;;;5.93;;
80961;SDS011;70424;55.154;14.722;2023-07-28T04:54:43;8.00;;;5.88;;
80961;SDS011;70424;55.154;14.722;2023-07-28T04:57:08;8.10;;;5.75;;
80961;SDS011;70424;55.154;14.722;2023-07-28T04:59:33;6.43;;;5.13;;
80961;SDS011;70424;55.154;14.722;2023-07-28T05:01:59;8.60;;;5.65;;
80961;SDS011;70424;55.154;14.722;2023-07-28T05:04:24;7.55;;;5.10;;
80961;SDS011;70424;55.154;14.722;2023-07-28T05:06:49;6.32;;;4.95;;
80961;SDS011;70424;55.154;14.722;2023-07-28T05:09:15;7.97;;;5.32;;
80961;SDS011;70424;55.154;14.722;2023-07-28T05:11:40;6.78;;;5.03;;
80961;SDS011;70424;55.154;14.722;2023-07-28T05:14:05;7.53;;;5.50;;
80961;SDS011;70424;55.154;14.722;2023-07-28T05:18:58;7.00;;;5.07;;
80961;SDS011;70424;55.154;14.722;2023-07-28T05:21:24;7.43;;;4.78;;
80961;SDS011;70424;55.154;14.722;2023-07-28T05:23:50;6.03;;;4.28;;
80961;SDS011;70424;55.154;14.722;2023-07-28T05:26:15;7.90;;;4.70;;
80961;SDS011;70424;55.154;14.722;2023-07-28T05:28:40;6.15;;;5.00;;
80961;SDS011;70424;55.154;14.722;2023-07-28T05:31:06;6.90;;;4.60;;
80961;SDS011;70424;55.154;14.722;2023-07-28T05:33:31;7.00;;;4.65;;
80961;SDS011;70424;55.154;14.722;2023-07-28T05:36:01;7.28;;;4.10;;
80961;SDS011;70424;55.154;14.722;2023-07-28T05:38:28;7.10;;;4.32;;
80961;SDS011;70424;55.154;14.722;2023-07-28T05:40:57;6.35;;;4.50;;
80961;SDS011;70424;55.154;14.722;2023-07-28T05:43:23;5.22;;;4.28;;
80961;SDS011;70424;55.154;14.722;2023-07-28T05:45:48;7.43;;;4.32;;
80961;SDS011;70424;55.154;14.722;2023-07-28T05:48:13;6.63;;;4.80;;
80961;SDS011;70424;55.154;14.722;2023-07-28T05:50:39;6.40;;;4.28;;
80961;SDS011;70424;55.154;14.722;2023-07-28T05:53:04;5.72;;;4.60;;
80961;SDS011;70424;55.154;14.722;2023-07-28T05:55:29;6.43;;;4.80;;
80961;SDS011;70424;55.154;14.722;2023-07-28T05:57:55;6.60;;;4.35;;
80961;SDS011;70424;55.154;14.722;2023-07-28T06:00:20;5.72;;;4.28;;
80961;SDS011;70424;55.154;14.722;2023-07-28T06:02:47;6.75;;;4.35;;
80961;SDS011;70424;55.154;14.722;2023-07-28T06:05:12;6.70;;;4.55;;
80961;SDS011;70424;55.154;14.722;2023-07-28T06:07:38;6.32;;;4.53;;
80961;SDS011;70424;55.154;14.722;2023-07-28T06:10:03;6.43;;;4.28;;
80961;SDS011;70424;55.154;14.722;2023-07-28T06:12:29;6.43;;;4.30;;
80961;SDS011;70424;55.154;14.722;2023-07-28T06:14:54;6.13;;;4.43;;
80961;SDS011;70424;55.154;14.722;2023-07-28T06:17:20;5.72;;;4.20;;
80961;SDS011;70424;55.154;14.722;2023-07-28T06:19:45;6.07;;;4.22;;
80961;SDS011;70424;55.154;14.722;2023-07-28T06:22:10;6.40;;;4.10;;
80961;SDS011;70424;55.154;14.722;2023-07-28T06:24:36;5.75;;;4.30;;
80961;SDS011;70424;55.154;14.722;2023-07-28T06:27:01;6.18;;;4.07;;
80961;SDS011;70424;55.154;14.722;2023-07-28T06:29:32;5.80;;;4.28;;
80961;SDS011;70424;55.154;14.722;2023-07-28T06:31:57;6.75;;;4.13;;
80961;SDS011;70424;55.154;14.722;2023-07-28T06:34:22;6.70;;;4.03;;
80961;SDS011;70424;55.154;14.722;2023-07-28T06:36:48;6.35;;;4.35;;
80961;SDS011;70424;55.154;14.722;2023-07-28T06:39:13;6.40;;;3.95;;
80961;SDS011;70424;55.154;14.722;2023-07-28T06:41:38;7.28;;;4.38;;
80961;SDS011;70424;55.154;14.722;2023-07-28T06:44:04;6.65;;;4.20;;
80961;SDS011;70424;55.154;14.722;2023-07-28T06:46:29;7.13;;;4.03;;
80961;SDS011;70424;55.154;14.722;2023-07-28T06:48:55;5.30;;;4.13;;
80961;SDS011;70424;55.154;14.722;2023-07-28T06:51:20;7.20;;;3.95;;
80961;SDS011;70424;55.154;14.722;2023-07-28T06:53:46;5.18;;;3.80;;
80961;SDS011;70424;55.154;14.722;2023-07-28T06:56:11;5.80;;;4.00;;
80961;SDS011;70424;55.154;14.722;2023-07-28T06:58:36;6.75;;;3.97;;
80961;SDS011;70424;55.154;14.722;2023-07-28T07:01:02;4.63;;;3.58;;
80961;SDS011;70424;55.154;14.722;2023-07-28T07:03:27;5.53;;;3.50;;
80961;SDS011;70424;55.154;14.722;2023-07-28T07:05:52;4.57;;;3.53;;
80961;SDS011;70424;55.154;14.722;2023-07-28T07:08:18;4.70;;;3.38;;
80961;SDS011;70424;55.154;14.722;2023-07-28T07:10:49;7.25;;;3.92;;
80961;SDS011;70424;55.154;14.722;2023-07-28T07:13:15;9.15;;;3.80;;
80961;SDS011;70424;55.154;14.722;2023-07-28T07:15:41;6.68;;;3.65;;
80961;SDS011;70424;55.154;14.722;2023-07-28T07:18:07;6.40;;;3.38;;
80961;SDS011;70424;55.154;14.722;2023-07-28T07:20:35;6.40;;;3.90;;
80961;SDS011;70424;55.154;14.722;2023-07-28T07:23:01;5.50;;;3.70;;
80961;SDS011;70424;55.154;14.722;2023-07-28T07:25:27;5.65;;;3.72;;
80961;SDS011;70424;55.154;14.722;2023-07-28T07:27:52;6.55;;;3.90;;
80961;SDS011;70424;55.154;14.722;2023-07-28T07:30:17;5.80;;;3.83;;
80961;SDS011;70424;55.154;14.722;2023-07-28T07:32:43;8.18;;;3.80;;
80961;SDS011;70424;55.154;14.722;2023-07-28T07:35:08;6.47;;;3.90;;
80961;SDS011;70424;55.154;14.722;2023-07-28T07:37:34;5.40;;;3.20;;
80961;SDS011;70424;55.154;14.722;2023-07-28T07:39:59;5.00;;;3.40;;
80961;SDS011;70424;55.154;14.722;2023-07-28T07:42:26;4.28;;;3.22;;
80961;SDS011;70424;55.154;14.722;2023-07-28T07:44:52;5.97;;;3.60;;
80961;SDS011;70424;55.154;14.722;2023-07-28T07:47:17;6.55;;;3.80;;
80961;SDS011;70424;55.154;14.722;2023-07-28T07:49:43;5.60;;;3.30;;
80961;SDS011;70424;55.154;14.722;2023-07-28T07:52:08;5.38;;;4.18;;
80961;SDS011;70424;55.154;14.722;2023-07-28T07:54:35;4.55;;;3.40;;
80961;SDS011;70424;55.154;14.722;2023-07-28T07:57:00;5.85;;;3.55;;
80961;SDS011;70424;55.154;14.722;2023-07-28T07:59:26;6.53;;;3.75;;
80961;SDS011;70424;55.154;14.722;2023-07-28T08:01:55;6.47;;;3.80;;
80961;SDS011;70424;55.154;14.722;2023-07-28T08:04:21;5.65;;;3.70;;
80961;SDS011;70424;55.154;14.722;2023-07-28T08:06:46;6.80;;;3.97;;
80961;SDS011;70424;55.154;14.722;2023-07-28T08:09:11;4.97;;;3.40;;
80961;SDS011;70424;55.154;14.722;2023-07-28T08:11:39;6.70;;;3.50;;
80961;SDS011;70424;55.154;14.722;2023-07-28T08:14:04;7.80;;;3.70;;
80961;SDS011;70424;55.154;14.722;2023-07-28T08:16:30;5.22;;;3.40;;
80961;SDS011;70424;55.154;14.722;2023-07-28T08:18:55;5.55;;;3.40;;
80961;SDS011;70424;55.154;14.722;2023-07-28T08:21:20;4.80;;;2.85;;
80961;SDS011;70424;55.154;14.722;2023-07-28T08:23:47;6.77;;;3.27;;
80961;SDS011;70424;55.154;14.722;2023-07-28T08:26:13;4.10;;;2.35;;
80961;SDS011;70424;55.154;14.722;2023-07-28T08:28:38;5.95;;;3.22;;
80961;SDS011;70424;55.154;14.722;2023-07-28T08:31:04;6.50;;;3.17;;
80961;SDS011;70424;55.154;14.722;2023-07-28T08:33:29;6.50;;;3.10;;
80961;SDS011;70424;55.154;14.722;2023-07-28T08:35:54;7.25;;;3.50;;
80961;SDS011;70424;55.154;14.722;2023-07-28T08:38:20;6.35;;;3.53;;
80961;SDS011;70424;55.154;14.722;2023-07-28T08:40:45;5.50;;;3.33;;
80961;SDS011;70424;55.154;14.722;2023-07-28T08:43:10;12.15;;;3.85;;
80961;SDS011;70424;55.154;14.722;2023-07-28T08:45:36;4.65;;;3.20;;
80961;SDS011;70424;55.154;14.722;2023-07-28T08:48:01;5.20;;;3.10;;
80961;SDS011;70424;55.154;14.722;2023-07-28T08:50:27;5.25;;;3.17;;
80961;SDS011;70424;55.154;14.722;2023-07-28T08:52:52;4.70;;;2.90;;
80961;SDS011;70424;55.154;14.722;2023-07-28T08:55:17;4.40;;;3.08;;
80961;SDS011;70424;55.154;14.722;2023-07-28T08:57:43;5.00;;;3.30;;
80961;SDS011;70424;55.154;14.722;2023-07-28T09:00:09;4.00;;;2.92;;
80961;SDS011;70424;55.154;14.722;2023-07-28T09:02:38;5.95;;;3.10;;
80961;SDS011;70424;55.154;14.722;2023-07-28T09:05:03;5.13;;;3.33;;
80961;SDS011;70424;55.154;14.722;2023-07-28T09:07:36;7.28;;;3.00;;
80961;SDS011;70424;55.154;14.722;2023-07-28T09:10:02;4.30;;;3.28;;
80961;SDS011;70424;55.154;14.722;2023-07-28T09:12:31;4.95;;;3.17;;
80961;SDS011;70424;55.154;14.722;2023-07-28T09:14:57;5.15;;;3.42;;
80961;SDS011;70424;55.154;14.722;2023-07-28T09:17:22;4.68;;;3.30;;
80961;SDS011;70424;55.154;14.722;2023-07-28T09:19:54;5.63;;;3.80;;
80961;SDS011;70424;55.154;14.722;2023-07-28T09:22:21;5.55;;;3.35;;
80961;SDS011;70424;55.154;14.722;2023-07-28T09:24:48;4.95;;;3.30;;
80961;SDS011;70424;55.154;14.722;2023-07-28T09:27:20;5.53;;;3.70;;
80961;SDS011;70424;55.154;14.722;2023-07-28T09:29:50;5.78;;;3.88;;
80961;SDS011;70424;55.154;14.722;2023-07-28T09:32:17;6.72;;;3.08;;
80961;SDS011;70424;55.154;14.722;2023-07-28T09:35:08;3.28;;;2.40;;
80961;SDS011;70424;55.154;14.722;2023-07-28T09:37:39;5.40;;;3.50;;
80961;SDS011;70424;55.154;14.722;2023-07-28T09:40:09;3.65;;;2.75;;
80961;SDS011;70424;55.154;14.722;2023-07-28T09:42:37;5.07;;;2.90;;
80961;SDS011;70424;55.154;14.722;2023-07-28T09:45:03;5.28;;;2.95;;
80961;SDS011;70424;55.154;14.722;2023-07-28T09:47:30;4.70;;;2.83;;
80961;SDS011;70424;55.154;14.722;2023-07-28T09:49:59;4.10;;;2.85;;
80961;SDS011;70424;55.154;14.722;2023-07-28T09:52:28;4.90;;;2.78;;
80961;SDS011;70424;55.154;14.722;2023-07-28T09:54:59;4.07;;;2.67;;
80961;SDS011;70424;55.154;14.722;2023-07-28T09:57:28;4.05;;;2.80;;
80961;SDS011;70424;55.154;14.722;2023-07-28T09:59:54;4.88;;;2.95;;
80961;SDS011;70424;55.154;14.722;2023-07-28T10:02:22;4.75;;;2.70;;
80961;SDS011;70424;55.154;14.722;2023-07-28T10:04:48;5.93;;;2.85;;
80961;SDS011;70424;55.154;14.722;2023-07-28T10:07:13;5.15;;;3.00;;
80961;SDS011;70424;55.154;14.722;2023-07-28T10:09:39;5.88;;;3.40;;
80961;SDS011;70424;55.154;14.722;2023-07-28T10:12:05;4.97;;;3.00;;
80961;SDS011;70424;55.154;14.722;2023-07-28T10:14:34;4.88;;;2.97;;
80961;SDS011;70424;55.154;14.722;2023-07-28T10:17:03;5.18;;;3.03;;
80961;SDS011;70424;55.154;14.722;2023-07-28T10:19:29;5.15;;;3.33;;
80961;SDS011;70424;55.154;14.722;2023-07-28T10:22:01;5.22;;;3.20;;
80961;SDS011;70424;55.154;14.722;2023-07-28T10:24:50;7.97;;;3.67;;
80961;SDS011;70424;55.154;14.722;2023-07-28T10:27:31;5.45;;;3.20;;
80961;SDS011;70424;55.154;14.722;2023-07-28T10:30:00;7.03;;;4.07;;
80961;SDS011;70424;55.154;14.722;2023-07-28T10:32:33;5.32;;;3.28;;
80961;SDS011;70424;55.154;14.722;2023-07-28T10:35:09;4.57;;;3.42;;
80961;SDS011;70424;55.154;14.722;2023-07-28T10:37:37;5.65;;;3.40;;
80961;SDS011;70424;55.154;14.722;2023-07-28T10:40:22;4.65;;;3.17;;
80961;SDS011;70424;55.154;14.722;2023-07-28T10:43:00;9.13;;;4.32;;
80961;SDS011;70424;55.154;14.722;2023-07-28T10:45:32;9.88;;;3.97;;
80961;SDS011;70424;55.154;14.722;2023-07-28T10:47:58;8.05;;;4.18;;
80961;SDS011;70424;55.154;14.722;2023-07-28T10:50:28;9.95;;;4.18;;
80961;SDS011;70424;55.154;14.722;2023-07-28T10:52:55;7.25;;;3.55;;
80961;SDS011;70424;55.154;14.722;2023-07-28T10:55:25;6.82;;;3.80;;
80961;SDS011;70424;55.154;14.722;2023-07-28T10:57:52;8.40;;;4.22;;
80961;SDS011;70424;55.154;14.722;2023-07-28T11:00:19;6.15;;;4.22;;
80961;SDS011;70424;55.154;14.722;2023-07-28T11:02:55;6.22;;;4.20;;
80961;SDS011;70424;55.154;14.722;2023-07-28T11:07:49;8.43;;;4.70;;
80961;SDS011;70424;55.154;14.722;2023-07-28T11:10:15;6.15;;;4.13;;
80961;SDS011;70424;55.154;14.722;2023-07-28T11:12:45;5.17;;;3.60;;
80961;SDS011;70424;55.154;14.722;2023-07-28T11:15:12;4.95;;;3.55;;
80961;SDS011;70424;55.154;14.722;2023-07-28T11:17:43;5.80;;;3.72;;
80961;SDS011;70424;55.154;14.722;2023-07-28T11:20:20;4.97;;;3.50;;
80961;SDS011;70424;55.154;14.722;2023-07-28T11:25:19;5.80;;;4.00;;
80961;SDS011;70424;55.154;14.722;2023-07-28T11:27:46;6.32;;;4.32;;
80961;SDS011;70424;55.154;14.722;2023-07-28T11:30:12;5.83;;;4.27;;
80961;SDS011;70424;55.154;14.722;2023-07-28T11:32:39;6.30;;;3.90;;
80961;SDS011;70424;55.154;14.722;2023-07-28T11:35:08;6.32;;;4.03;;
80961;SDS011;70424;55.154;14.722;2023-07-28T11:37:35;6.32;;;3.90;;
80961;SDS011;70424;55.154;14.722;2023-07-28T11:40:02;6.60;;;3.83;;
80961;SDS011;70424;55.154;14.722;2023-07-28T11:42:34;6.32;;;4.00;;
80961;SDS011;70424;55.154;14.722;2023-07-28T11:45:02;6.90;;;3.83;;
80961;SDS011;70424;55.154;14.722;2023-07-28T11:47:28;6.78;;;3.78;;
80961;SDS011;70424;55.154;14.722;2023-07-28T11:49:53;5.45;;;3.70;;
80961;SDS011;70424;55.154;14.722;2023-07-28T11:52:19;7.00;;;3.63;;
80961;SDS011;70424;55.154;14.722;2023-07-28T11:54:46;5.32;;;3.60;;
80961;SDS011;70424;55.154;14.722;2023-07-28T11:57:11;6.45;;;3.65;;
80961;SDS011;70424;55.154;14.722;2023-07-28T11:59:38;4.20;;;2.70;;
80961;SDS011;70424;55.154;14.722;2023-07-28T12:02:04;6.07;;;3.80;;
80961;SDS011;70424;55.154;14.722;2023-07-28T12:04:31;4.47;;;3.42;;
80961;SDS011;70424;55.154;14.722;2023-07-28T12:07:02;5.97;;;3.40;;
80961;SDS011;70424;55.154;14.722;2023-07-28T12:12:10;5.55;;;3.38;;
80961;SDS011;70424;55.154;14.722;2023-07-28T12:14:36;5.13;;;3.58;;
80961;SDS011;70424;55.154;14.722;2023-07-28T12:17:01;5.88;;;3.30;;
80961;SDS011;70424;55.154;14.722;2023-07-28T12:19:27;6.13;;;3.63;;
80961;SDS011;70424;55.154;14.722;2023-07-28T12:21:53;5.43;;;3.40;;
80961;SDS011;70424;55.154;14.722;2023-07-28T12:24:18;4.85;;;3.22;;
80961;SDS011;70424;55.154;14.722;2023-07-28T12:26:48;4.88;;;3.25;;
80961;SDS011;70424;55.154;14.722;2023-07-28T12:29:15;4.07;;;3.17;;
80961;SDS011;70424;55.154;14.722;2023-07-28T12:31:41;4.55;;;3.45;;
80961;SDS011;70424;55.154;14.722;2023-07-28T12:34:06;5.93;;;3.80;;
80961;SDS011;70424;55.154;14.722;2023-07-28T12:36:32;5.70;;;3.28;;
80961;SDS011;70424;55.154;14.722;2023-07-28T12:38:57;14.65;;;3.83;;
80961;SDS011;70424;55.154;14.722;2023-07-28T12:41:22;7.45;;;2.88;;
80961;SDS011;70424;55.154;14.722;2023-07-28T12:43:47;5.63;;;3.25;;
80961;SDS011;70424;55.154;14.722;2023-07-28T12:46:13;5.60;;;3.92;;
80961;SDS011;70424;55.154;14.722;2023-07-28T12:48:38;5.15;;;3.58;;
80961;SDS011;70424;55.154;14.722;2023-07-28T12:51:04;6.63;;;3.30;;
80961;SDS011;70424;55.154;14.722;2023-07-28T12:53:30;5.03;;;3.70;;
80961;SDS011;70424;55.154;14.722;2023-07-28T12:55:55;5.80;;;3.85;;
80961;SDS011;70424;55.154;14.722;2023-07-28T12:58:20;5.75;;;3.30;;
80961;SDS011;70424;55.154;14.722;2023-07-28T13:00:46;4.03;;;2.92;;
80961;SDS011;70424;55.154;14.722;2023-07-28T13:03:11;5.13;;;3.35;;
80961;SDS011;70424;55.154;14.722;2023-07-28T13:05:36;5.13;;;3.53;;
80961;SDS011;70424;55.154;14.722;2023-07-28T13:08:02;5.88;;;3.50;;
80961;SDS011;70424;55.154;14.722;2023-07-28T13:10:27;16.10;;;3.65;;
80961;SDS011;70424;55.154;14.722;2023-07-28T13:12:52;5.45;;;3.10;;
80961;SDS011;70424;55.154;14.722;2023-07-28T13:15:18;4.77;;;3.10;;
80961;SDS011;70424;55.154;14.722;2023-07-28T13:17:43;8.33;;;3.90;;
80961;SDS011;70424;55.154;14.722;2023-07-28T13:20:08;5.25;;;3.25;;
80961;SDS011;70424;55.154;14.722;2023-07-28T13:22:34;4.63;;;3.42;;
80961;SDS011;70424;55.154;14.722;2023-07-28T13:24:59;6.28;;;4.18;;
80961;SDS011;70424;55.154;14.722;2023-07-28T13:27:25;6.03;;;4.15;;
80961;SDS011;70424;55.154;14.722;2023-07-28T13:29:50;4.65;;;3.28;;
80961;SDS011;70424;55.154;14.722;2023-07-28T13:32:22;6.07;;;3.92;;
80961;SDS011;70424;55.154;14.722;2023-07-28T13:34:49;5.28;;;2.90;;
80961;SDS011;70424;55.154;14.722;2023-07-28T13:37:14;4.60;;;3.05;;
80961;SDS011;70424;55.154;14.722;2023-07-28T13:39:40;6.05;;;4.68;;
80961;SDS011;70424;55.154;14.722;2023-07-28T13:42:06;5.38;;;4.20;;
80961;SDS011;70424;55.154;14.722;2023-07-28T13:44:32;5.50;;;4.50;;
80961;SDS011;70424;55.154;14.722;2023-07-28T13:46:57;6.85;;;5.30;;
80961;SDS011;70424;55.154;14.722;2023-07-28T13:49:22;6.70;;;5.95;;
80961;SDS011;70424;55.154;14.722;2023-07-28T13:51:47;5.85;;;4.57;;
80961;SDS011;70424;55.154;14.722;2023-07-28T13:54:13;8.60;;;5.13;;
80961;SDS011;70424;55.154;14.722;2023-07-28T13:56:38;7.38;;;4.50;;
80961;SDS011;70424;55.154;14.722;2023-07-28T13:59:03;7.78;;;4.60;;
80961;SDS011;70424;55.154;14.722;2023-07-28T14:01:30;6.50;;;5.00;;
80961;SDS011;70424;55.154;14.722;2023-07-28T14:03:55;13.63;;;5.45;;
80961;SDS011;70424;55.154;14.722;2023-07-28T14:06:21;8.60;;;5.57;;
80961;SDS011;70424;55.154;14.722;2023-07-28T14:08:46;6.55;;;4.53;;
80961;SDS011;70424;55.154;14.722;2023-07-28T14:11:11;7.30;;;4.60;;
80961;SDS011;70424;55.154;14.722;2023-07-28T14:13:37;6.97;;;4.50;;
80961;SDS011;70424;55.154;14.722;2023-07-28T14:16:02;7.47;;;4.70;;
80961;SDS011;70424;55.154;14.722;2023-07-28T14:18:27;7.15;;;4.13;;
80961;SDS011;70424;55.154;14.722;2023-07-28T14:20:53;5.85;;;3.78;;
80961;SDS011;70424;55.154;14.722;2023-07-28T14:23:25;7.88;;;4.85;;
80961;SDS011;70424;55.154;14.722;2023-07-28T14:25:52;12.27;;;4.45;;
80961;SDS011;70424;55.154;14.722;2023-07-28T14:28:17;6.68;;;4.85;;
80961;SDS011;70424;55.154;14.722;2023-07-28T14:30:43;7.22;;;4.78;;
80961;SDS011;70424;55.154;14.722;2023-07-28T14:33:12;9.07;;;4.95;;
80961;SDS011;70424;55.154;14.722;2023-07-28T14:38:04;9.03;;;4.83;;
80961;SDS011;70424;55.154;14.722;2023-07-28T14:40:29;8.20;;;4.30;;
80961;SDS011;70424;55.154;14.722;2023-07-28T14:42:54;9.18;;;4.38;;
80961;SDS011;70424;55.154;14.722;2023-07-28T14:45:20;14.98;;;6.38;;
80961;SDS011;70424;55.154;14.722;2023-07-28T14:47:45;15.35;;;6.00;;